COOK1: Arkansas River Nr Coolidge, KS

                                SHEF ID:       COOK1     ARKANSAS R NR COOLIDGE, KS
STATION TYPE:
Regulating: Stage = 8.00, Flow = 2050

PRECIP STAGE STAGE(2) RIV-FLOW WTR-TEMP CONDUCT BAT-LOAD
in ft ft cfs F umho/cm volt
Ccp-Rev Ccp-Rev Ccp-Rev Ccp-Rev Ccp-Rev Ccp-Rev Ccp-Rev
(America/Chicago)
07/05 00:00 0.00 2.36 2.50 43 72.18 6230 12.95
07/05 01:00 0.00 2.36 2.51 43 70.95 6217 12.89
07/05 02:00 0.00 2.35 2.51 42 69.64 6172 12.89
07/05 03:00 0.00 2.36 2.52 43 68.52 6125 12.89
07/05 04:00 0.00 2.36 2.52 43 67.48 6165 12.83
07/05 05:00 0.00 2.36 2.52 43 66.38 6165 12.83
07/05 06:00 0.00 2.36 2.52 43 65.23 6120 12.77
07/05 07:00 0.00 2.37 2.52 44 64.65 6106 12.77
07/05 08:00 0.00 2.36 2.53 43 64.67 6102 12.77
07/05 09:00 0.00 2.37 2.54 44 65.66 6124 12.95
07/05 10:00 0.00 2.39 2.55 45 67.57 6136 13.36
07/05 11:00 0.00 2.39 2.52 45 70.20 6102 13.53
07/05 12:00 0.00 2.41 2.56 47 73.20 6050 13.77
07/05 13:00 0.00 2.42 2.56 47 76.01 6016 13.59
07/05 14:00 0.00 2.41 2.56 47 77.52 5981 13.83
07/05 15:00 0.00 2.41 2.56 47 77.76 5971 13.30
07/05 16:00 0.00 2.41 2.56 47 79.48 5974 13.30
07/05 17:00 0.00 2.41 2.55 47 79.38 5974 13.53
07/05 18:00 0.00 2.41 2.55 47 78.93 5980 13.36
07/05 19:00 0.00 2.40 2.54 46 78.21 6025 13.18
07/05 20:00 0.00 2.40 2.54 46 76.14 6037 13.12
07/05 21:00 0.00 2.39 2.52 45 74.19 6079 13.07
07/05 22:00 0.00 2.38 2.51 44 72.81 6122 13.00
07/05 23:00 ---- ---- ---- ---- ---- ---- ----
Data processed at Sat 06Jul2024 04:30 GMT

Parsing this webpage?

Checkout our new Data API! CWMSDataAPI (CDA)

Timeseries IDs (TSIDs)

TSIDs used from left to right in the data table
COOL.Precip-Inc.Total.1Hour.1Hour.Ccp-Rev
COOL.Stage.Inst.1Hour.0.Ccp-Rev
COOL.Stage-Alt.Inst.1Hour.0.Ccp-Rev
COOL.Flow.Inst.1Hour.0.Ccp-Rev
COOL.Temp-Water.Inst.1Hour.0.Ccp-Rev
COOL.Cond.Inst.1Hour.0.Ccp-Rev
COOL.Volt-Battery Load.Inst.1Hour.0.Ccp-Rev

                            

All information presented herein is the property of the government of the United States of America and may be revised or deleted at any time without prior notice. Dissemination of this information without the expressed written consent of the Public Affairs Office, Tulsa District U.S. Army Corps of Engineers is strictly prohibited. These data are gathered electronically and, as presented, have NOT undergone any form of quality control. These data are NOT guaranteed to be valid or correct.